createdAt,value
2022-11-03T00:00:45.353Z,12.29
2022-11-03T00:18:26.005Z,12.45
2022-11-03T00:23:26.111Z,12.50
2022-11-03T00:28:26.079Z,12.49
2022-11-03T00:33:25.880Z,12.47
2022-11-03T00:38:25.820Z,12.62
2022-11-03T00:43:25.728Z,12.65
2022-11-03T00:48:25.778Z,12.49
2022-11-03T00:53:25.713Z,12.52
2022-11-03T00:58:25.655Z,12.47
2022-11-03T01:03:25.793Z,12.46
2022-11-03T01:08:27.661Z,12.45
2022-11-03T01:13:25.726Z,12.46
2022-11-03T01:18:25.493Z,12.45
2022-11-03T01:23:25.381Z,12.46
2022-11-03T01:28:25.377Z,12.34
2022-11-03T01:33:25.166Z,12.37
2022-11-03T01:38:26.313Z,12.29
2022-11-03T01:43:25.063Z,12.27
2022-11-03T01:48:25.037Z,12.32
2022-11-03T01:53:24.965Z,12.17
2022-11-03T01:58:26.947Z,12.13
2022-11-03T02:03:24.941Z,12.14
2022-11-03T02:08:24.851Z,12.07
2022-11-03T02:13:24.733Z,11.99
2022-11-03T02:18:25.801Z,11.94
2022-11-03T02:23:25.658Z,12.04
2022-11-03T02:28:24.702Z,12.23
2022-11-03T02:33:24.733Z,12.20
2022-11-03T02:38:25.565Z,11.99
2022-11-03T02:43:24.615Z,11.91
2022-11-03T02:48:24.442Z,11.99
2022-11-03T02:53:24.482Z,12.05
2022-11-03T02:58:24.207Z,12.23
2022-11-03T03:03:24.347Z,12.14
2022-11-03T03:08:25.208Z,12.13
2022-11-03T03:13:25.085Z,12.28
2022-11-03T03:18:24.171Z,12.23
2022-11-03T03:23:24.194Z,12.10
2022-11-03T03:28:23.935Z,12.17
2022-11-03T03:33:24.089Z,12.42
2022-11-03T03:38:23.886Z,12.32
2022-11-03T03:43:23.774Z,12.32
2022-11-03T03:48:23.736Z,12.32
2022-11-03T03:53:23.631Z,12.45
2022-11-03T03:58:23.607Z,12.21
2022-11-03T04:03:23.562Z,12.21
2022-11-03T04:08:23.682Z,12.17
2022-11-03T04:13:23.572Z,12.16
2022-11-03T04:18:23.521Z,12.23
2022-11-03T04:23:24.498Z,12.24
2022-11-03T04:28:23.253Z,12.31
2022-11-03T04:33:23.370Z,12.28
2022-11-03T04:38:23.176Z,12.28
2022-11-03T04:43:23.046Z,12.38
2022-11-03T04:48:22.981Z,12.50
2022-11-03T04:53:22.999Z,12.38
2022-11-03T04:58:22.989Z,12.42
2022-11-03T05:03:22.848Z,12.53
2022-11-03T05:08:22.896Z,12.49
2022-11-03T05:13:23.933Z,12.50
2022-11-03T05:18:22.810Z,12.70
2022-11-03T05:23:22.761Z,12.77
2022-11-03T05:28:22.661Z,12.87
2022-11-03T05:33:22.650Z,12.85
2022-11-03T05:38:22.517Z,12.78
2022-11-03T05:43:23.454Z,12.82
2022-11-03T05:48:22.443Z,12.90
2022-11-03T05:53:22.312Z,12.85
2022-11-03T05:58:22.228Z,13.00
2022-11-03T06:03:22.186Z,12.78
2022-11-03T06:08:22.183Z,12.77
2022-11-03T06:13:22.240Z,12.93
2022-11-03T06:18:22.257Z,12.95
2022-11-03T06:24:57.115Z,12.95
2022-11-03T06:29:57.049Z,12.90
2022-11-03T06:34:57.054Z,13.05
2022-11-03T06:39:57.019Z,12.92
2022-11-03T06:44:56.977Z,12.90
2022-11-03T06:49:56.833Z,12.97
2022-11-03T06:54:56.752Z,12.87
2022-11-03T07:00:13.267Z,12.96
2022-11-03T07:04:57.656Z,12.97
2022-11-03T07:09:56.726Z,12.95
2022-11-03T07:14:56.608Z,13.03
2022-11-03T07:19:56.600Z,13.01
2022-11-03T07:24:56.455Z,12.96
2022-11-03T07:29:56.537Z,13.07
2022-11-03T07:34:56.380Z,13.08
2022-11-03T07:39:56.317Z,13.07
2022-11-03T07:44:56.370Z,13.10
2022-11-03T07:49:57.214Z,13.23
2022-11-03T07:54:56.263Z,13.32
2022-11-03T07:59:56.178Z,13.49
2022-11-03T08:04:56.135Z,13.67
2022-11-03T08:09:55.991Z,13.77
2022-11-03T08:14:56.044Z,13.97
2022-11-03T08:19:55.956Z,14.18
2022-11-03T08:24:56.853Z,14.28
2022-11-03T08:29:56.748Z,14.33
2022-11-03T08:34:55.814Z,14.35
2022-11-03T08:39:55.821Z,14.28
2022-11-03T08:44:55.809Z,14.28
2022-11-03T08:49:55.641Z,14.54
2022-11-03T08:59:56.802Z,14.47
2022-11-03T09:04:56.516Z,14.77
2022-11-03T09:14:56.271Z,15.27
2022-11-03T09:19:56.292Z,15.41
2022-11-03T09:24:55.197Z,15.65
2022-11-03T09:30:12.339Z,15.67
2022-11-03T09:34:56.057Z,15.68
2022-11-03T09:39:55.009Z,15.84
2022-11-03T09:44:55.031Z,15.92
2022-11-03T09:49:56.046Z,16.30
2022-11-03T09:54:54.840Z,16.23
2022-11-03T09:59:54.854Z,16.15
2022-11-03T10:04:54.979Z,16.23
2022-11-03T10:09:54.659Z,16.23
2022-11-03T10:14:54.639Z,16.38
2022-11-03T10:19:55.613Z,16.24
2022-11-03T10:24:55.582Z,16.41
2022-11-03T10:29:58.013Z,16.49
2022-11-03T10:34:54.367Z,16.67
2022-11-03T10:39:54.325Z,16.88
2022-11-03T10:44:54.242Z,16.98
2022-11-03T10:49:54.183Z,16.96
2022-11-03T10:54:54.219Z,16.82
2022-11-03T10:59:54.085Z,16.79
2022-11-03T11:04:54.129Z,16.75
2022-11-03T11:09:54.018Z,16.85
2022-11-03T11:14:53.963Z,16.85
2022-11-03T11:19:53.909Z,17.03
2022-11-03T11:24:54.859Z,17.14
2022-11-03T11:29:53.804Z,17.11
2022-11-03T11:34:53.695Z,16.78
2022-11-03T11:39:53.668Z,16.76
2022-11-03T11:44:53.653Z,16.61
2022-11-03T11:49:53.554Z,16.67
2022-11-03T11:54:54.322Z,16.48
2022-11-03T11:59:53.517Z,16.39
2022-11-03T12:04:53.490Z,16.41
2022-11-03T12:09:53.354Z,16.23
2022-11-03T12:14:53.352Z,16.07
2022-11-03T12:19:53.305Z,16.17
2022-11-03T12:25:02.021Z,16.42
2022-11-03T12:29:53.088Z,16.25
2022-11-03T12:34:53.060Z,16.27
2022-11-03T12:39:53.000Z,16.50
2022-11-03T12:44:53.954Z,16.56
2022-11-03T12:49:54.903Z,16.73
2022-11-03T12:54:52.850Z,16.57
2022-11-03T12:59:52.859Z,16.34
2022-11-03T13:04:52.746Z,16.41
2022-11-03T13:09:52.691Z,16.46
2022-11-03T13:14:52.680Z,16.43
2022-11-03T13:19:54.723Z,16.35
2022-11-03T13:24:53.536Z,16.11
2022-11-03T13:29:52.432Z,15.94
2022-11-03T13:34:52.411Z,16.21
2022-11-03T13:39:52.343Z,16.23
2022-11-03T13:44:52.325Z,16.12
2022-11-03T13:50:13.169Z,16.24
2022-11-03T13:59:53.156Z,16.14
2022-11-03T14:04:52.116Z,16.17
2022-11-03T14:09:52.067Z,16.12
2022-11-03T14:14:51.987Z,16.12
2022-11-03T14:19:52.842Z,16.05
2022-11-03T14:24:51.866Z,15.78
2022-11-03T14:29:51.819Z,15.87
2022-11-03T14:34:51.782Z,15.50
2022-11-03T14:39:51.742Z,15.46
2022-11-03T14:49:51.683Z,15.32
2022-11-03T14:54:51.615Z,15.19
2022-11-03T14:59:53.745Z,15.06
2022-11-03T15:04:51.419Z,14.99
2022-11-03T15:09:51.378Z,14.75
2022-11-03T15:14:51.324Z,14.39
2022-11-03T15:19:54.716Z,14.33
2022-11-03T15:29:52.136Z,14.24
2022-11-03T15:34:51.134Z,13.92
2022-11-03T15:39:52.664Z,13.71
2022-11-03T15:44:51.018Z,13.59
2022-11-03T15:49:50.934Z,13.36
2022-11-03T15:54:50.863Z,13.28
2022-11-03T15:59:53.849Z,13.17
2022-11-03T16:04:51.762Z,13.22
2022-11-03T16:09:50.692Z,13.14
2022-11-03T16:14:50.681Z,12.86
2022-11-03T16:19:50.592Z,12.72
2022-11-03T16:24:50.591Z,12.89
2022-11-03T16:29:50.511Z,12.90
2022-11-03T16:34:50.447Z,12.79
2022-11-03T16:39:51.399Z,12.71
2022-11-03T16:44:50.335Z,12.60
2022-11-03T16:49:52.935Z,12.64
2022-11-03T16:54:50.384Z,12.67
2022-11-03T16:59:50.203Z,12.70
2022-11-03T17:04:50.441Z,12.68
2022-11-03T17:09:50.069Z,12.60
2022-11-03T17:14:52.560Z,12.72
2022-11-03T17:19:50.995Z,12.62
2022-11-03T17:24:50.954Z,12.70
2022-11-03T17:29:49.916Z,12.67
2022-11-03T17:34:49.783Z,12.60
2022-11-03T17:39:49.800Z,12.54
2022-11-03T17:44:49.716Z,12.68
2022-11-03T17:49:49.647Z,12.65
2022-11-03T17:54:49.610Z,12.70
2022-11-03T17:59:49.496Z,12.56
2022-11-03T18:04:49.447Z,12.70
2022-11-03T18:09:49.382Z,12.71
2022-11-03T18:14:49.337Z,12.67
2022-11-03T18:19:49.289Z,12.67
2022-11-03T18:24:49.311Z,12.65
2022-11-03T18:29:49.636Z,12.71
2022-11-03T18:34:49.199Z,12.70
2022-11-03T18:39:49.105Z,12.75
2022-11-03T18:44:50.076Z,12.67
2022-11-03T18:49:48.979Z,12.67
2022-11-03T18:54:48.893Z,12.70
2022-11-03T18:59:57.712Z,12.70
2022-11-03T19:04:48.867Z,12.68
2022-11-03T19:09:48.747Z,12.77
2022-11-03T19:14:48.775Z,12.75
2022-11-03T19:19:48.681Z,12.72
2022-11-03T19:24:48.632Z,12.72
2022-11-03T19:29:48.582Z,12.67
2022-11-03T19:34:48.506Z,12.67
2022-11-03T19:39:48.475Z,12.71
2022-11-03T19:44:48.395Z,12.53
2022-11-03T19:49:48.339Z,12.62
2022-11-03T19:54:48.245Z,12.62
2022-11-03T19:59:48.218Z,12.60
2022-11-03T20:04:48.180Z,12.64
2022-11-03T20:09:48.113Z,12.59
2022-11-03T20:14:48.058Z,12.52
2022-11-03T20:19:47.951Z,12.53
2022-11-03T20:24:47.954Z,12.46
2022-11-03T20:29:47.860Z,12.41
2022-11-03T20:34:47.824Z,12.49
2022-11-03T20:39:47.764Z,12.50
2022-11-03T20:44:47.777Z,12.47
2022-11-03T20:49:47.726Z,12.52
2022-11-03T20:54:47.596Z,12.60
2022-11-03T20:59:47.573Z,12.56
2022-11-03T21:04:47.531Z,12.57
2022-11-03T21:09:47.445Z,12.64
2022-11-03T21:14:47.374Z,12.70
2022-11-03T21:19:47.338Z,12.65
2022-11-03T21:24:47.295Z,12.68
2022-11-03T21:29:58.953Z,12.65
2022-11-03T21:34:48.153Z,12.70
2022-11-03T21:39:47.076Z,12.65
2022-11-03T21:44:47.041Z,12.67
2022-11-03T21:49:47.102Z,12.74
2022-11-03T21:54:46.946Z,12.67
2022-11-03T21:59:46.906Z,12.70
2022-11-03T22:04:46.839Z,12.70
2022-11-03T22:09:46.765Z,12.68
2022-11-03T22:14:46.782Z,12.59
2022-11-03T22:19:46.656Z,12.67
2022-11-03T22:24:46.661Z,12.59
2022-11-03T22:29:46.610Z,12.59
2022-11-03T22:34:46.532Z,12.52
2022-11-03T22:39:46.466Z,12.59
2022-11-03T22:44:46.367Z,12.60
2022-11-03T22:49:46.373Z,12.68
2022-11-03T22:54:46.267Z,12.60
2022-11-03T22:59:46.237Z,12.57
2022-11-03T23:04:46.202Z,12.46
2022-11-03T23:09:46.258Z,12.39
2022-11-03T23:14:46.214Z,12.37
2022-11-03T23:19:46.098Z,12.21
2022-11-03T23:24:46.060Z,12.05
2022-11-03T23:29:46.029Z,11.83
2022-11-03T23:34:45.905Z,11.80
2022-11-03T23:39:45.840Z,11.69
2022-11-03T23:44:45.753Z,11.76
2022-11-03T23:49:45.709Z,11.82
2022-11-03T23:54:45.688Z,11.67
